Terminal Aerodrome Forecast
Issued by NWS Newport/Morehead City, NC

Home | Current Version | Previous Version | Graphics & Text | Print | Product List | Glossary On
Versions: 1 2 3 4 5 6 7 8 9 10 11 12 13 14 15 16 17 18 19 20 21 22 23 24 25
498
FTUS42 KMHX 251737
TAFEWN
TAF
KEWN 251737Z 2518/2618 05008KT P6SM BKN020
     FM252000 06007KT P6SM SCT025 BKN040
     FM260200 05004KT P6SM SCT040=

USA.gov is the U.S. government's official web portal to all federal, state and local government web resources and services.